Time;durP1;ratioP1;P1;durP2;ratioP2;P2;SDS_P1;SDS_P2;PMS_P1;PMS_P2;Temp;Humidity;BMP_temperature;BMP_pressure;BME280_temperature;BME280_humidity;BME280_pressure;Samples;Min_cycle;Max_cycle;Signal;HPM_P1;HPM_P2
2024/03/18 00:01:09;;;;;;;5.00;2.45;;;;;;;;;;5096139;28;20399;-76
2024/03/18 00:03:34;;;;;;;5.97;2.35;;;;;;;;;;5104704;28;20510;-76
2024/03/18 00:06:00;;;;;;;8.43;2.63;;;;;;;;;;5101783;28;20032;-76
2024/03/18 00:08:25;;;;;;;5.07;2.05;;;;;;;;;;5100071;28;20032;-76
2024/03/18 00:10:51;;;;;;;4.15;1.80;;;;;;;;;;5107634;28;20104;-76
2024/03/18 00:13:16;;;;;;;4.43;2.15;;;;;;;;;;5102409;28;20373;-76
2024/03/18 00:15:41;;;;;;;6.07;2.00;;;;;;;;;;5100002;28;20115;-76
2024/03/18 00:18:06;;;;;;;4.80;2.00;;;;;;;;;;5092847;28;20115;-76
2024/03/18 00:20:31;;;;;;;4.60;2.30;;;;;;;;;;5100421;28;20403;-76
2024/03/18 00:22:57;;;;;;;4.80;1.80;;;;;;;;;;5102937;28;20725;-77
2024/03/18 00:25:22;;;;;;;6.75;2.65;;;;;;;;;;5101471;28;20150;-76
2024/03/18 00:27:47;;;;;;;6.55;2.22;;;;;;;;;;5101335;28;20123;-76
2024/03/18 00:30:13;;;;;;;6.05;2.30;;;;;;;;;;5093368;28;20028;-76
2024/03/18 00:32:40;;;;;;;5.25;2.33;;;;;;;;;;5101026;28;20065;-76
2024/03/18 00:35:05;;;;;;;7.40;2.60;;;;;;;;;;5101867;28;20039;-77
2024/03/18 00:37:30;;;;;;;6.60;2.97;;;;;;;;;;5100522;28;20040;-77
2024/03/18 00:39:55;;;;;;;5.70;2.63;;;;;;;;;;5101657;28;20030;-76
2024/03/18 00:42:21;;;;;;;5.53;2.33;;;;;;;;;;5094935;28;20054;-76
2024/03/18 00:44:46;;;;;;;5.57;2.53;;;;;;;;;;5106481;28;20035;-76
2024/03/18 00:47:11;;;;;;;6.13;2.60;;;;;;;;;;5099313;28;20032;-76
2024/03/18 00:49:37;;;;;;;6.55;2.60;;;;;;;;;;5099014;28;20024;-76
2024/03/18 00:52:02;;;;;;;7.30;2.90;;;;;;;;;;5105850;28;20027;-76
2024/03/18 00:54:27;;;;;;;7.03;2.50;;;;;;;;;;5098963;28;20055;-77
2024/03/18 00:56:52;;;;;;;6.22;2.47;;;;;;;;;;5100423;28;20036;-76
2024/03/18 00:59:18;;;;;;;7.80;2.58;;;;;;;;;;5098787;28;20034;-76
2024/03/18 01:01:43;;;;;;;8.15;2.70;;;;;;;;;;5100952;28;20512;-77
2024/03/18 01:04:09;;;;;;;7.35;2.83;;;;;;;;;;5107090;28;20442;-76
2024/03/18 01:06:34;;;;;;;7.00;2.90;;;;;;;;;;5105692;28;20044;-77
2024/03/18 01:08:59;;;;;;;7.10;2.40;;;;;;;;;;5106330;28;20024;-76
2024/03/18 01:11:25;;;;;;;5.93;2.63;;;;;;;;;;5094138;28;20032;-77
2024/03/18 01:13:50;;;;;;;6.70;2.63;;;;;;;;;;5096320;28;20019;-76
2024/03/18 01:16:16;;;;;;;6.82;3.03;;;;;;;;;;5099038;28;20051;-77
2024/03/18 01:18:42;;;;;;;6.78;2.80;;;;;;;;;;5098864;28;20492;-76
2024/03/18 01:21:07;;;;;;;6.20;2.47;;;;;;;;;;5094875;28;20035;-77
2024/03/18 01:23:32;;;;;;;7.47;2.78;;;;;;;;;;5103761;28;20031;-76
2024/03/18 01:25:57;;;;;;;6.10;2.47;;;;;;;;;;5107637;28;20118;-77
2024/03/18 01:28:23;;;;;;;7.72;2.72;;;;;;;;;;5098696;28;20105;-76
2024/03/18 01:30:49;;;;;;;6.85;3.50;;;;;;;;;;5105869;28;20024;-76
2024/03/18 01:33:14;;;;;;;6.15;3.17;;;;;;;;;;5101768;28;20420;-76
2024/03/18 01:35:40;;;;;;;6.85;3.17;;;;;;;;;;5096855;28;20089;-76
2024/03/18 01:38:05;;;;;;;7.97;3.15;;;;;;;;;;5099374;28;20074;-76
2024/03/18 01:40:32;;;;;;;6.60;3.10;;;;;;;;;;5094423;28;20040;-76
2024/03/18 01:42:57;;;;;;;7.38;3.67;;;;;;;;;;5102562;28;20491;-76
2024/03/18 01:45:23;;;;;;;6.03;2.90;;;;;;;;;;5098131;28;20032;-76
2024/03/18 01:47:49;;;;;;;7.45;3.60;;;;;;;;;;5112572;28;20031;-76
2024/03/18 01:50:14;;;;;;;6.32;3.53;;;;;;;;;;5098273;28;20051;-77
2024/03/18 01:52:39;;;;;;;7.53;3.17;;;;;;;;;;5093220;28;20040;-77
2024/03/18 01:55:05;;;;;;;6.90;2.95;;;;;;;;;;5099034;28;20059;-77
2024/03/18 01:57:30;;;;;;;8.52;2.97;;;;;;;;;;5099484;28;20045;-77
2024/03/18 01:59:56;;;;;;;8.30;3.72;;;;;;;;;;5104099;28;20028;-76
2024/03/18 02:02:23;;;;;;;8.05;3.78;;;;;;;;;;5102779;28;20040;-76
2024/03/18 02:04:48;;;;;;;8.38;3.65;;;;;;;;;;5100937;28;20137;-76
2024/03/18 02:07:24;;;;;;;10.02;4.07;;;;;;;;;;5093548;28;20044;-77
2024/03/18 02:09:50;;;;;;;6.97;3.35;;;;;;;;;;5098002;28;20568;-76
2024/03/18 02:12:16;;;;;;;7.70;3.45;;;;;;;;;;5102114;28;20056;-76
2024/03/18 02:14:44;;;;;;;8.77;3.85;;;;;;;;;;5099654;28;20032;-76
2024/03/18 02:17:09;;;;;;;8.65;3.60;;;;;;;;;;5094629;28;20581;-76
2024/03/18 02:19:34;;;;;;;8.30;3.38;;;;;;;;;;5091779;28;20069;-76
2024/03/18 02:22:05;;;;;;;10.75;4.18;;;;;;;;;;5095770;28;20024;-76
2024/03/18 02:24:31;;;;;;;8.65;3.90;;;;;;;;;;5093621;28;20036;-76
2024/03/18 02:26:56;;;;;;;7.78;3.60;;;;;;;;;;5100170;28;20039;-76
2024/03/18 02:29:21;;;;;;;10.27;4.63;;;;;;;;;;5094935;28;20024;-76
2024/03/18 02:31:46;;;;;;;10.02;4.55;;;;;;;;;;5097716;28;20039;-77
2024/03/18 02:34:12;;;;;;;8.18;4.13;;;;;;;;;;5091438;28;20028;-76
2024/03/18 02:36:38;;;;;;;10.10;3.88;;;;;;;;;;5091672;28;20056;-76
2024/03/18 02:39:07;;;;;;;8.38;4.10;;;;;;;;;;5097627;28;20024;-76
2024/03/18 02:41:32;;;;;;;11.25;4.18;;;;;;;;;;5103612;28;20028;-77
2024/03/18 02:43:57;;;;;;;7.93;4.15;;;;;;;;;;5096180;28;20494;-76
2024/03/18 02:46:23;;;;;;;10.27;4.93;;;;;;;;;;5093192;28;20488;-76
2024/03/18 02:48:48;;;;;;;8.60;4.00;;;;;;;;;;5102547;28;20039;-76
2024/03/18 02:51:13;;;;;;;8.25;3.80;;;;;;;;;;5095249;28;20020;-76
2024/03/18 02:53:38;;;;;;;8.55;4.10;;;;;;;;;;5097868;28;20081;-76
2024/03/18 02:56:04;;;;;;;8.32;3.47;;;;;;;;;;5101209;28;20442;-76
2024/03/18 02:58:29;;;;;;;8.88;4.05;;;;;;;;;;5101343;28;20046;-76
2024/03/18 03:00:54;;;;;;;8.13;4.03;;;;;;;;;;5106339;28;20045;-76
2024/03/18 03:03:19;;;;;;;10.57;4.22;;;;;;;;;;5096548;28;20111;-76
2024/03/18 03:05:45;;;;;;;9.18;3.70;;;;;;;;;;5098082;28;20107;-76
2024/03/18 03:08:11;;;;;;;10.32;3.97;;;;;;;;;;5101845;28;20059;-76
2024/03/18 03:10:36;;;;;;;9.80;4.07;;;;;;;;;;5102134;28;20028;-76
2024/03/18 03:13:03;;;;;;;7.75;3.80;;;;;;;;;;5102205;28;20163;-76
2024/03/18 03:15:29;;;;;;;10.35;3.50;;;;;;;;;;5095709;28;20028;-76
2024/03/18 03:17:54;;;;;;;7.65;3.38;;;;;;;;;;5105630;28;20036;-76
2024/03/18 03:20:30;;;;;;;15.17;4.60;;;;;;;;;;5101125;28;20032;-76
2024/03/18 03:22:55;;;;;;;8.13;4.07;;;;;;;;;;5102421;28;20490;-76
2024/03/18 03:25:21;;;;;;;11.93;3.97;;;;;;;;;;5097610;28;20040;-76
2024/03/18 03:27:46;;;;;;;8.13;3.60;;;;;;;;;;5098074;28;20036;-76
2024/03/18 03:30:12;;;;;;;7.80;3.95;;;;;;;;;;5095034;28;20555;-76
2024/03/18 03:32:37;;;;;;;8.37;3.77;;;;;;;;;;5099271;28;20098;-76
2024/03/18 03:35:02;;;;;;;10.37;4.87;;;;;;;;;;5103848;28;20019;-76
2024/03/18 03:37:28;;;;;;;9.77;3.73;;;;;;;;;;5107675;28;20511;-76
2024/03/18 03:39:54;;;;;;;8.67;4.57;;;;;;;;;;5106549;28;20032;-76
2024/03/18 03:42:19;;;;;;;9.40;4.07;;;;;;;;;;5099564;28;20093;-76
2024/03/18 03:44:44;;;;;;;10.52;3.97;;;;;;;;;;5096237;28;20080;-76
2024/03/18 03:47:09;;;;;;;8.53;4.13;;;;;;;;;;5102651;28;20520;-76
2024/03/18 03:49:34;;;;;;;8.48;4.00;;;;;;;;;;5107041;28;20038;-76
2024/03/18 03:52:00;;;;;;;7.67;3.53;;;;;;;;;;5104199;28;20030;-76
2024/03/18 03:54:25;;;;;;;8.97;3.43;;;;;;;;;;5095253;28;20036;-76
2024/03/18 03:56:50;;;;;;;8.33;3.73;;;;;;;;;;5096339;28;20035;-77
2024/03/18 03:59:15;;;;;;;9.30;3.60;;;;;;;;;;5099658;28;20043;-77
2024/03/18 04:01:41;;;;;;;10.53;3.93;;;;;;;;;;5101741;28;20063;-76
2024/03/18 04:04:06;;;;;;;11.63;3.90;;;;;;;;;;5102368;28;20034;-76
2024/03/18 04:06:31;;;;;;;8.20;3.80;;;;;;;;;;5101712;28;20032;-77
2024/03/18 04:08:57;;;;;;;7.70;3.67;;;;;;;;;;5097770;28;20035;-77
2024/03/18 04:11:22;;;;;;;10.10;4.43;;;;;;;;;;5098506;28;20028;-77
2024/03/18 04:13:47;;;;;;;8.70;4.00;;;;;;;;;;5095601;28;20028;-77
2024/03/18 04:16:14;;;;;;;9.83;4.73;;;;;;;;;;5099472;28;20027;-77
2024/03/18 04:18:40;;;;;;;8.83;4.20;;;;;;;;;;5099014;28;20072;-77
2024/03/18 04:21:05;;;;;;;8.40;3.90;;;;;;;;;;5100315;28;20588;-77
2024/03/18 04:23:32;;;;;;;9.63;4.27;;;;;;;;;;5094836;28;20408;-77
2024/03/18 04:26:05;;;;;;;9.80;3.83;;;;;;;;;;5096687;28;20118;-77
2024/03/18 04:28:31;;;;;;;9.20;3.93;;;;;;;;;;5092312;28;20032;-77
2024/03/18 04:30:58;;;;;;;6.90;3.70;;;;;;;;;;5102135;28;20058;-77
2024/03/18 04:33:23;;;;;;;8.07;3.70;;;;;;;;;;5097770;28;20058;-77
2024/03/18 04:35:49;;;;;;;10.37;4.67;;;;;;;;;;5098522;28;20492;-77
2024/03/18 04:38:14;;;;;;;9.80;3.90;;;;;;;;;;5101566;28;20144;-77
2024/03/18 04:40:39;;;;;;;10.97;4.80;;;;;;;;;;5095403;28;20035;-77
2024/03/18 04:43:05;;;;;;;9.87;4.90;;;;;;;;;;5104424;28;20032;-77
2024/03/18 04:45:31;;;;;;;8.27;3.67;;;;;;;;;;5098848;28;20099;-77
2024/03/18 04:47:56;;;;;;;10.50;4.40;;;;;;;;;;5098395;28;20111;-77
2024/03/18 04:50:22;;;;;;;8.50;4.20;;;;;;;;;;5098495;28;20042;-77
2024/03/18 04:52:48;;;;;;;11.43;4.97;;;;;;;;;;5105329;28;20036;-77
2024/03/18 04:55:13;;;;;;;9.40;4.07;;;;;;;;;;5102191;28;20032;-77
2024/03/18 04:57:39;;;;;;;11.73;3.90;;;;;;;;;;5105143;28;20064;-77
2024/03/18 05:00:14;;;;;;;10.63;5.03;;;;;;;;;;5105487;28;20039;-77
2024/03/18 05:02:40;;;;;;;9.60;4.80;;;;;;;;;;5105042;28;20028;-77
2024/03/18 05:05:06;;;;;;;8.83;4.33;;;;;;;;;;5091509;28;20031;-77
2024/03/18 05:07:31;;;;;;;8.33;4.23;;;;;;;;;;5106021;27;20043;-78
2024/03/18 05:09:57;;;;;;;9.77;5.13;;;;;;;;;;5106483;28;20035;-77
2024/03/18 05:12:22;;;;;;;8.70;3.97;;;;;;;;;;5108127;28;20032;-77
2024/03/18 05:14:50;;;;;;;9.00;4.60;;;;;;;;;;5100476;28;20047;-77
2024/03/18 05:17:16;;;;;;;9.33;4.37;;;;;;;;;;5096930;28;20024;-77
2024/03/18 05:19:41;;;;;;;8.67;3.63;;;;;;;;;;5099554;28;20043;-77
2024/03/18 05:22:06;;;;;;;9.33;4.23;;;;;;;;;;5099636;28;20372;-77
2024/03/18 05:24:32;;;;;;;9.13;4.70;;;;;;;;;;5099915;28;20059;-77
2024/03/18 05:26:57;;;;;;;10.10;4.47;;;;;;;;;;5102075;28;20495;-77
2024/03/18 05:29:22;;;;;;;10.37;4.43;;;;;;;;;;5100100;28;20039;-77
2024/03/18 05:31:47;;;;;;;10.53;4.57;;;;;;;;;;5102046;28;20032;-78
2024/03/18 05:34:13;;;;;;;27.70;15.03;;;;;;;;;;5099172;28;20679;-78
2024/03/18 05:36:39;;;;;;;14.80;7.93;;;;;;;;;;5100086;28;20059;-77
2024/03/18 05:39:04;;;;;;;12.03;5.80;;;;;;;;;;5104860;28;20039;-80
2024/03/18 05:41:29;;;;;;;10.83;4.87;;;;;;;;;;5110390;28;20372;-77
2024/03/18 05:43:55;;;;;;;10.40;4.83;;;;;;;;;;5097168;28;20024;-77
2024/03/18 05:46:21;;;;;;;8.00;3.63;;;;;;;;;;5099474;28;20024;-77
2024/03/18 05:48:47;;;;;;;10.93;4.70;;;;;;;;;;5105737;28;20043;-78
2024/03/18 05:51:12;;;;;;;8.60;3.87;;;;;;;;;;5102106;28;20123;-78
2024/03/18 05:53:38;;;;;;;10.67;4.77;;;;;;;;;;5103529;28;20118;-78
2024/03/18 05:56:04;;;;;;;9.37;4.57;;;;;;;;;;5110799;28;20031;-78
2024/03/18 05:58:30;;;;;;;11.00;4.82;;;;;;;;;;5102752;28;20377;-77
2024/03/18 06:00:55;;;;;;;10.60;4.60;;;;;;;;;;5108099;28;20097;-77
2024/03/18 06:03:20;;;;;;;10.57;4.97;;;;;;;;;;5108232;28;20039;-77
2024/03/18 06:05:46;;;;;;;12.23;6.28;;;;;;;;;;5104228;28;20111;-77
2024/03/18 06:08:11;;;;;;;11.48;4.93;;;;;;;;;;5104866;28;20102;-77
2024/03/18 06:10:36;;;;;;;12.27;5.50;;;;;;;;;;5098189;28;20106;-77
2024/03/18 06:13:02;;;;;;;11.50;5.65;;;;;;;;;;5101742;28;20032;-78
2024/03/18 06:15:28;;;;;;;8.18;4.38;;;;;;;;;;5101548;28;20036;-77
2024/03/18 06:17:53;;;;;;;8.57;3.93;;;;;;;;;;5099924;28;20059;-77
2024/03/18 06:20:19;;;;;;;12.57;4.72;;;;;;;;;;5101088;28;20059;-77
2024/03/18 06:22:46;;;;;;;8.55;4.20;;;;;;;;;;5103126;28;20067;-77
2024/03/18 06:27:55;;;;;;;8.52;3.78;;;;;;;;;;5097014;28;20709;-77
2024/03/18 06:30:20;;;;;;;10.10;3.95;;;;;;;;;;5095841;28;20074;-77
2024/03/18 06:32:45;;;;;;;11.80;4.80;;;;;;;;;;5101960;28;20066;-77
2024/03/18 06:35:11;;;;;;;9.10;4.20;;;;;;;;;;5102566;28;20067;-77
2024/03/18 06:37:36;;;;;;;8.13;3.53;;;;;;;;;;5104315;28;20036;-77
2024/03/18 06:40:05;;;;;;;10.48;4.25;;;;;;;;;;5100916;28;20020;-77
2024/03/18 06:42:31;;;;;;;12.13;4.88;;;;;;;;;;5106165;28;20423;-77
2024/03/18 06:44:57;;;;;;;9.57;4.45;;;;;;;;;;5106584;28;20024;-77
2024/03/18 06:47:22;;;;;;;9.00;3.80;;;;;;;;;;5105236;28;20488;-77
2024/03/18 06:49:47;;;;;;;7.78;3.85;;;;;;;;;;5103713;28;20507;-77
2024/03/18 06:52:12;;;;;;;9.07;4.13;;;;;;;;;;5106832;28;20028;-77
2024/03/18 06:54:37;;;;;;;10.00;4.68;;;;;;;;;;5099604;28;20051;-77
2024/03/18 06:57:03;;;;;;;10.45;4.20;;;;;;;;;;5098945;28;20028;-77
2024/03/18 06:59:28;;;;;;;9.32;3.92;;;;;;;;;;5094203;28;20039;-77
2024/03/18 07:01:53;;;;;;;10.50;3.97;;;;;;;;;;5100158;28;20016;-77
2024/03/18 07:04:18;;;;;;;10.77;5.43;;;;;;;;;;5102488;28;20055;-77
2024/03/18 07:06:44;;;;;;;9.32;3.90;;;;;;;;;;5111523;28;20063;-77
2024/03/18 07:09:09;;;;;;;7.93;3.65;;;;;;;;;;5098639;28;20030;-77
2024/03/18 07:11:34;;;;;;;8.63;4.20;;;;;;;;;;5101768;28;20059;-77
2024/03/18 07:13:59;;;;;;;8.48;4.00;;;;;;;;;;5096571;28;20484;-77
2024/03/18 07:16:24;;;;;;;7.03;3.58;;;;;;;;;;5111135;28;20043;-77
2024/03/18 07:18:50;;;;;;;12.05;3.70;;;;;;;;;;5102349;28;20032;-77
2024/03/18 07:21:15;;;;;;;10.73;3.67;;;;;;;;;;5099169;28;20039;-77
2024/03/18 07:23:40;;;;;;;10.55;4.13;;;;;;;;;;5106440;28;20059;-77
2024/03/18 07:26:06;;;;;;;10.75;4.22;;;;;;;;;;5096407;28;20028;-77
2024/03/18 07:28:33;;;;;;;7.93;3.50;;;;;;;;;;5094536;28;20063;-77
2024/03/18 07:30:58;;;;;;;6.90;3.45;;;;;;;;;;5104085;28;20059;-77
2024/03/18 07:33:23;;;;;;;8.63;4.38;;;;;;;;;;5103132;28;20464;-76
2024/03/18 07:35:51;;;;;;;7.05;3.55;;;;;;;;;;5098958;28;20032;-77
2024/03/18 07:38:16;;;;;;;6.85;3.40;;;;;;;;;;5100499;28;20051;-77
2024/03/18 07:40:41;;;;;;;7.85;3.67;;;;;;;;;;5102410;28;20028;-77
2024/03/18 07:43:11;;;;;;;11.13;5.10;;;;;;;;;;5100904;28;20024;-76
2024/03/18 07:45:36;;;;;;;8.18;3.67;;;;;;;;;;5110174;28;20489;-77
2024/03/18 07:48:04;;;;;;;10.02;4.45;;;;;;;;;;5106326;28;20051;-77
2024/03/18 07:50:31;;;;;;;10.38;5.20;;;;;;;;;;5101384;28;20051;-77
2024/03/18 07:52:56;;;;;;;10.20;5.18;;;;;;;;;;5107749;28;20039;-77
2024/03/18 07:55:21;;;;;;;14.85;6.82;;;;;;;;;;5102998;28;20035;-77
2024/03/18 07:57:46;;;;;;;14.43;6.93;;;;;;;;;;5101358;28;20112;-77
2024/03/18 08:00:12;;;;;;;9.52;3.95;;;;;;;;;;5102831;28;20020;-77
2024/03/18 08:02:37;;;;;;;7.88;3.63;;;;;;;;;;5103278;28;20444;-77
2024/03/18 08:05:03;;;;;;;8.18;4.47;;;;;;;;;;5099327;28;20016;-77
2024/03/18 08:07:28;;;;;;;9.23;3.92;;;;;;;;;;5098424;28;20024;-77
2024/03/18 08:09:55;;;;;;;6.55;2.88;;;;;;;;;;5093105;28;20028;-77
2024/03/18 08:12:21;;;;;;;6.43;3.28;;;;;;;;;;5104605;28;20043;-77
2024/03/18 08:14:46;;;;;;;6.75;3.08;;;;;;;;;;5100555;28;20056;-77
2024/03/18 08:17:11;;;;;;;7.90;3.85;;;;;;;;;;5105992;28;20388;-77
2024/03/18 08:19:37;;;;;;;7.53;3.20;;;;;;;;;;5096992;28;20488;-77
2024/03/18 08:22:02;;;;;;;6.38;3.58;;;;;;;;;;5099871;28;20027;-77
2024/03/18 08:24:28;;;;;;;7.55;3.72;;;;;;;;;;5093545;28;20659;-77
2024/03/18 08:26:54;;;;;;;6.03;2.97;;;;;;;;;;5101390;28;20023;-78
2024/03/18 08:29:20;;;;;;;6.13;2.90;;;;;;;;;;5099732;28;20454;-77
2024/03/18 08:31:45;;;;;;;8.40;3.40;;;;;;;;;;5102228;28;20024;-77
2024/03/18 08:34:10;;;;;;;6.93;2.95;;;;;;;;;;5099648;28;20471;-77
2024/03/18 08:36:35;;;;;;;5.93;3.15;;;;;;;;;;5101912;28;20032;-78
2024/03/18 08:39:01;;;;;;;6.55;3.00;;;;;;;;;;5095674;28;20035;-77
2024/03/18 08:41:26;;;;;;;6.65;3.00;;;;;;;;;;5102743;28;20035;-77
2024/03/18 08:43:51;;;;;;;4.93;2.80;;;;;;;;;;5101781;28;20106;-77
2024/03/18 08:46:16;;;;;;;6.30;3.03;;;;;;;;;;5101728;28;20100;-77
2024/03/18 08:48:42;;;;;;;7.22;2.53;;;;;;;;;;5094601;28;20111;-77
2024/03/18 08:51:07;;;;;;;7.43;2.97;;;;;;;;;;5103533;28;20498;-77
2024/03/18 08:53:32;;;;;;;5.95;3.05;;;;;;;;;;5102912;28;20051;-78
2024/03/18 08:55:58;;;;;;;6.05;2.83;;;;;;;;;;5111407;28;20028;-79
2024/03/18 08:58:23;;;;;;;4.57;2.25;;;;;;;;;;5105383;28;20035;-78
2024/03/18 09:00:50;;;;;;;6.35;2.15;;;;;;;;;;5100164;28;20051;-79
2024/03/18 09:03:15;;;;;;;10.23;3.63;;;;;;;;;;5099513;28;20036;-79
2024/03/18 09:05:40;;;;;;;4.90;2.70;;;;;;;;;;5105588;28;20036;-79
2024/03/18 09:08:06;;;;;;;7.22;2.50;;;;;;;;;;5111616;28;20027;-78
2024/03/18 09:10:31;;;;;;;4.82;2.50;;;;;;;;;;5096461;28;20047;-79
2024/03/18 09:12:58;;;;;;;6.15;2.80;;;;;;;;;;5103524;28;20049;-79
2024/03/18 09:15:23;;;;;;;7.70;2.88;;;;;;;;;;5106100;27;20039;-78
2024/03/18 09:17:48;;;;;;;5.22;3.00;;;;;;;;;;5097724;28;20137;-78
2024/03/18 09:20:16;;;;;;;6.05;2.63;;;;;;;;;;5093603;28;20040;-79
2024/03/18 09:22:42;;;;;;;6.75;2.42;;;;;;;;;;5103740;28;20035;-79
2024/03/18 09:25:09;;;;;;;7.63;4.15;;;;;;;;;;5102923;28;20027;-79
2024/03/18 09:27:35;;;;;;;9.95;5.45;;;;;;;;;;5100463;28;20050;-79
2024/03/18 09:30:00;;;;;;;4.90;3.10;;;;;;;;;;5098338;28;20031;-80
2024/03/18 09:32:25;;;;;;;5.30;3.22;;;;;;;;;;5097591;28;20035;-79
2024/03/18 09:34:53;;;;;;;6.47;3.30;;;;;;;;;;5094109;28;20031;-79
2024/03/18 09:37:18;;;;;;;8.38;3.58;;;;;;;;;;5101196;28;20042;-79
2024/03/18 09:39:44;;;;;;;5.32;2.72;;;;;;;;;;5098707;28;20062;-79
2024/03/18 09:42:10;;;;;;;5.78;2.72;;;;;;;;;;5101513;28;20063;-79
2024/03/18 09:44:48;;;;;;;6.03;3.00;;;;;;;;;;5095264;28;20020;-79
2024/03/18 09:47:33;;;;;;;5.25;2.60;;;;;;;;;;5103282;28;20146;-79
2024/03/18 09:49:59;;;;;;;6.63;2.60;;;;;;;;;;5106145;28;20095;-79
2024/03/18 09:52:29;;;;;;;4.57;2.10;;;;;;;;;;5102513;28;20225;-79
2024/03/18 09:54:54;;;;;;;4.47;2.17;;;;;;;;;;5099051;28;20040;-78
2024/03/18 09:57:28;;;;;;;4.20;1.80;;;;;;;;;;5097034;28;20028;-78
2024/03/18 09:59:53;;;;;;;4.85;2.25;;;;;;;;;;5091906;28;20088;-77
2024/03/18 10:02:18;;;;;;;4.28;2.45;;;;;;;;;;5098375;28;20106;-78
2024/03/18 10:04:45;;;;;;;7.18;2.60;;;;;;;;;;5110614;28;20024;-78
2024/03/18 10:07:17;;;;;;;5.07;2.72;;;;;;;;;;5112165;28;20650;-78
2024/03/18 10:09:47;;;;;;;4.65;2.47;;;;;;;;;;5104896;28;20058;-78
2024/03/18 10:12:13;;;;;;;5.72;2.15;;;;;;;;;;5103787;28;20100;-78
2024/03/18 10:14:39;;;;;;;7.90;2.58;;;;;;;;;;5104725;28;20044;-78
2024/03/18 10:17:04;;;;;;;4.45;2.40;;;;;;;;;;5102658;28;20132;-78
2024/03/18 10:19:29;;;;;;;7.75;2.22;;;;;;;;;;5101504;28;20050;-78
2024/03/18 10:21:55;;;;;;;6.35;2.53;;;;;;;;;;5101650;28;20218;-78
2024/03/18 10:24:21;;;;;;;5.22;2.42;;;;;;;;;;5106459;28;20476;-77
2024/03/18 10:26:46;;;;;;;7.00;2.40;;;;;;;;;;5105494;28;20028;-77
2024/03/18 10:29:11;;;;;;;5.57;2.30;;;;;;;;;;5099140;28;20042;-78
2024/03/18 10:31:39;;;;;;;5.47;2.08;;;;;;;;;;5095443;28;20442;-78
2024/03/18 10:34:08;;;;;;;5.22;2.53;;;;;;;;;;5102852;28;20034;-78
2024/03/18 10:36:36;;;;;;;6.22;2.95;;;;;;;;;;5110625;28;20463;-78
2024/03/18 10:39:01;;;;;;;5.53;2.55;;;;;;;;;;5103010;28;20063;-78
2024/03/18 10:41:28;;;;;;;3.97;1.90;;;;;;;;;;5107690;28;20474;-78
2024/03/18 10:43:55;;;;;;;4.05;1.80;;;;;;;;;;5105586;28;20032;-78
2024/03/18 10:46:20;;;;;;;4.03;1.70;;;;;;;;;;5113880;28;20055;-77
2024/03/18 10:48:45;;;;;;;4.65;2.20;;;;;;;;;;5101448;28;20060;-78
2024/03/18 10:51:11;;;;;;;7.22;1.98;;;;;;;;;;5102525;28;20086;-78
2024/03/18 10:53:37;;;;;;;4.22;1.60;;;;;;;;;;5104666;28;20055;-77
2024/03/18 10:56:02;;;;;;;4.57;1.92;;;;;;;;;;5107013;28;20483;-78
2024/03/18 10:58:29;;;;;;;4.38;1.80;;;;;;;;;;5099696;28;20491;-78
2024/03/18 11:00:54;;;;;;;6.30;2.08;;;;;;;;;;5106849;28;20032;-78
2024/03/18 11:03:21;;;;;;;6.63;2.22;;;;;;;;;;5110045;28;20198;-78
2024/03/18 11:05:48;;;;;;;6.22;2.70;;;;;;;;;;5102328;28;20027;-78
2024/03/18 11:08:13;;;;;;;4.35;2.13;;;;;;;;;;5097095;28;20028;-78
2024/03/18 11:10:39;;;;;;;5.05;2.38;;;;;;;;;;5094640;28;20553;-78
2024/03/18 11:13:20;;;;;;;4.88;1.90;;;;;;;;;;5102008;28;20038;-78
2024/03/18 11:15:48;;;;;;;3.63;1.20;;;;;;;;;;5103006;28;20032;-78
2024/03/18 11:18:17;;;;;;;7.78;3.60;;;;;;;;;;5101168;28;20040;-78
2024/03/18 11:20:52;;;;;;;7.68;4.10;;;;;;;;;;5105150;28;20035;-77
2024/03/18 11:23:25;;;;;;;7.72;2.95;;;;;;;;;;5101456;28;20115;-78
2024/03/18 11:25:51;;;;;;;7.30;2.65;;;;;;;;;;5094920;28;20052;-77
2024/03/18 11:28:17;;;;;;;6.00;2.25;;;;;;;;;;5102323;28;20484;-78
2024/03/18 11:30:42;;;;;;;8.07;3.03;;;;;;;;;;5098206;28;20078;-78
2024/03/18 11:33:11;;;;;;;3.97;1.83;;;;;;;;;;5106551;28;20495;-77
2024/03/18 11:35:40;;;;;;;5.65;1.92;;;;;;;;;;5094465;28;20061;-77
2024/03/18 11:38:06;;;;;;;4.35;1.52;;;;;;;;;;5097129;28;20458;-78
2024/03/18 11:40:36;;;;;;;4.03;1.50;;;;;;;;;;5086118;28;20034;-78
2024/03/18 11:43:02;;;;;;;3.17;1.45;;;;;;;;;;5104400;28;20028;-79
2024/03/18 11:45:27;;;;;;;4.22;1.55;;;;;;;;;;5110467;28;20504;-78
2024/03/18 11:48:05;;;;;;;3.88;1.58;;;;;;;;;;5110462;28;20032;-78
2024/03/18 11:50:40;;;;;;;6.38;1.73;;;;;;;;;;5100023;28;20047;-78
2024/03/18 11:53:08;;;;;;;2.67;1.30;;;;;;;;;;5098300;28;20089;-78
2024/03/18 11:55:36;;;;;;;5.00;1.95;;;;;;;;;;5104885;28;20438;-78
2024/03/18 11:58:02;;;;;;;5.53;1.83;;;;;;;;;;5100804;28;20070;-78
2024/03/18 12:00:27;;;;;;;5.45;1.60;;;;;;;;;;5101263;28;20062;-77
2024/03/18 12:02:53;;;;;;;5.05;1.65;;;;;;;;;;5099101;28;20550;-77
2024/03/18 12:05:19;;;;;;;2.75;1.30;;;;;;;;;;5094249;28;20039;-78
2024/03/18 12:07:44;;;;;;;4.10;1.55;;;;;;;;;;5101817;28;20131;-78
2024/03/18 12:10:10;;;;;;;2.88;1.30;;;;;;;;;;5103424;28;20024;-78
2024/03/18 12:12:36;;;;;;;4.80;1.40;;;;;;;;;;5108893;28;20128;-78
2024/03/18 12:15:01;;;;;;;2.08;1.10;;;;;;;;;;5103227;28;20040;-78
2024/03/18 12:17:27;;;;;;;3.03;1.55;;;;;;;;;;5107067;28;20446;-78
2024/03/18 12:19:54;;;;;;;3.40;1.50;;;;;;;;;;5098091;28;20408;-78
2024/03/18 12:22:21;;;;;;;4.85;1.40;;;;;;;;;;5102706;28;20027;-78
2024/03/18 12:30:21;;;;;;;4.20;1.38;;;;;;;;;;5104557;28;20031;-77
2024/03/18 12:32:50;;;;;;;4.03;1.42;;;;;;;;;;5103961;28;20040;-77
2024/03/18 12:35:19;;;;;;;5.32;2.38;;;;;;;;;;5106375;28;20031;-78
2024/03/18 12:37:48;;;;;;;4.18;1.45;;;;;;;;;;5114057;28;20048;-79
2024/03/18 12:40:17;;;;;;;5.28;1.50;;;;;;;;;;5095680;28;20061;-79
2024/03/18 12:42:48;;;;;;;2.65;1.17;;;;;;;;;;5169894;22;20044;-78
2024/03/18 12:45:13;;;;;;;5.45;1.33;;;;;;;;;;5082199;28;20111;-79
2024/03/18 12:47:38;;;;;;;3.08;1.35;;;;;;;;;;5080788;28;20131;-79
2024/03/18 12:50:05;;;;;;;2.47;1.13;;;;;;;;;;5079731;28;20028;-79
2024/03/18 12:52:31;;;;;;;1.98;1.10;;;;;;;;;;5068905;28;20036;-79
2024/03/18 12:54:56;;;;;;;3.40;1.17;;;;;;;;;;5047365;28;20029;-79
2024/03/18 12:57:22;;;;;;;3.50;1.17;;;;;;;;;;5036196;28;20090;-79
2024/03/18 12:59:47;;;;;;;3.92;1.77;;;;;;;;;;5046707;28;20056;-79
2024/03/18 13:02:13;;;;;;;6.18;1.80;;;;;;;;;;5045498;28;20028;-78
2024/03/18 13:04:38;;;;;;;3.35;1.63;;;;;;;;;;5030268;28;20048;-79
2024/03/18 13:07:04;;;;;;;3.03;1.30;;;;;;;;;;5048665;28;20041;-78
2024/03/18 13:09:29;;;;;;;1.70;0.75;;;;;;;;;;5046367;28;20033;-79
2024/03/18 13:11:57;;;;;;;2.70;1.10;;;;;;;;;;5033052;28;20025;-79
2024/03/18 13:14:23;;;;;;;2.03;0.90;;;;;;;;;;5048724;28;20059;-79
2024/03/18 13:16:48;;;;;;;2.28;0.90;;;;;;;;;;5026811;28;20056;-79
2024/03/18 13:19:14;;;;;;;2.33;1.00;;;;;;;;;;5047853;28;20482;-79
2024/03/18 13:21:39;;;;;;;2.95;1.20;;;;;;;;;;5049789;28;20025;-79
2024/03/18 13:24:04;;;;;;;3.88;2.50;;;;;;;;;;5045321;28;20037;-79
2024/03/18 13:26:30;;;;;;;3.92;1.67;;;;;;;;;;5046997;28;20124;-79
2024/03/18 13:28:55;;;;;;;4.53;1.65;;;;;;;;;;5043997;28;20068;-79
2024/03/18 13:31:23;;;;;;;2.47;1.00;;;;;;;;;;5045037;28;20028;-79
2024/03/18 13:33:49;;;;;;;6.25;1.10;;;;;;;;;;5052566;28;20110;-80
2024/03/18 13:36:15;;;;;;;2.25;1.13;;;;;;;;;;5034610;28;20032;-79
2024/03/18 13:38:40;;;;;;;4.30;1.35;;;;;;;;;;5044704;28;20556;-79
2024/03/18 13:41:07;;;;;;;2.67;1.10;;;;;;;;;;5028955;28;20033;-80
2024/03/18 13:43:32;;;;;;;1.70;0.80;;;;;;;;;;5043952;28;20079;-79
2024/03/18 13:45:58;;;;;;;2.20;1.20;;;;;;;;;;5046463;28;20043;-80
2024/03/18 13:48:23;;;;;;;7.57;1.00;;;;;;;;;;5034779;28;20033;-80
2024/03/18 13:50:49;;;;;;;3.08;1.40;;;;;;;;;;5046859;28;20532;-79
2024/03/18 13:53:15;;;;;;;2.65;1.17;;;;;;;;;;5047439;28;20109;-80
2024/03/18 13:55:40;;;;;;;4.55;1.50;;;;;;;;;;5043781;28;20034;-80
2024/03/18 13:58:06;;;;;;;3.20;1.27;;;;;;;;;;5044169;28;20742;-80
2024/03/18 14:00:31;;;;;;;2.85;1.25;;;;;;;;;;5030749;28;20928;-80
2024/03/18 14:02:56;;;;;;;2.50;1.15;;;;;;;;;;5048080;28;20037;-80
2024/03/18 14:05:22;;;;;;;5.72;2.13;;;;;;;;;;5047266;28;20052;-80
2024/03/18 14:07:47;;;;;;;4.93;1.48;;;;;;;;;;5043924;28;20033;-80
2024/03/18 14:10:12;;;;;;;2.53;1.30;;;;;;;;;;5045505;28;20103;-80
2024/03/18 14:12:39;;;;;;;2.85;1.40;;;;;;;;;;5044642;28;20044;-80
2024/03/18 14:15:06;;;;;;;3.70;1.65;;;;;;;;;;5032202;28;20122;-80
2024/03/18 14:17:31;;;;;;;3.40;1.70;;;;;;;;;;5049403;28;20493;-80
2024/03/18 14:19:57;;;;;;;4.03;1.70;;;;;;;;;;5032596;28;20041;-80
2024/03/18 14:22:22;;;;;;;3.90;1.80;;;;;;;;;;5046101;28;20118;-80
2024/03/18 14:24:50;;;;;;;3.70;1.75;;;;;;;;;;5031234;28;20033;-80
2024/03/18 14:27:15;;;;;;;3.53;1.55;;;;;;;;;;5046263;28;20041;-80
2024/03/18 14:29:40;;;;;;;5.10;1.88;;;;;;;;;;5033461;28;20120;-80
2024/03/18 14:32:06;;;;;;;4.72;1.73;;;;;;;;;;5033086;28;20041;-80
2024/03/18 14:34:31;;;;;;;3.83;1.70;;;;;;;;;;5047350;28;20029;-80
2024/03/18 14:36:58;;;;;;;3.25;1.58;;;;;;;;;;5015693;28;20433;-80
2024/03/18 14:39:24;;;;;;;3.47;1.60;;;;;;;;;;5033508;28;20463;-80
2024/03/18 14:41:50;;;;;;;5.13;1.63;;;;;;;;;;5047483;28;20029;-80